Time;durP1;ratioP1;P1;durP2;ratioP2;P2;SDS_P1;SDS_P2;PMS_P1;PMS_P2;Temp;Humidity;BMP_temperature;BMP_pressure;BME280_temperature;BME280_humidity;BME280_pressure;Samples;Min_cycle;Max_cycle;Signal;HPM_P1;HPM_P2
2023/08/12 00:00:36;;;;;;;11.15;5.93;;;;;;;;;;5090334;28;20464;-57
2023/08/12 00:03:02;;;;;;;10.10;6.18;;;;;;;;;;5090603;28;20135;-56
2023/08/12 00:05:29;;;;;;;10.27;5.90;;;;;;;;;;5098925;28;20052;-57
2023/08/12 00:07:55;;;;;;;13.00;5.88;;;;;;;;;;5087145;28;20067;-57
2023/08/12 00:10:21;;;;;;;9.00;5.47;;;;;;;;;;5093960;28;20056;-57
2023/08/12 00:12:47;;;;;;;15.43;5.70;;;;;;;;;;5097215;28;20036;-57
2023/08/12 00:15:14;;;;;;;14.27;5.63;;;;;;;;;;5090007;28;20553;-56
2023/08/12 00:17:41;;;;;;;10.57;5.60;;;;;;;;;;5090279;28;20062;-56
2023/08/12 00:20:10;;;;;;;19.25;5.53;;;;;;;;;;5089170;28;20051;-56
2023/08/12 00:22:36;;;;;;;9.55;5.95;;;;;;;;;;5089492;28;20047;-57
2023/08/12 00:25:02;;;;;;;13.48;6.30;;;;;;;;;;5089973;28;20446;-56
2023/08/12 00:27:29;;;;;;;10.27;6.47;;;;;;;;;;5090206;28;20051;-57
2023/08/12 00:29:55;;;;;;;9.32;5.78;;;;;;;;;;5091155;28;20044;-57
2023/08/12 00:32:21;;;;;;;8.75;4.45;;;;;;;;;;5090530;28;20514;-56
2023/08/12 00:34:47;;;;;;;9.95;4.82;;;;;;;;;;5089156;28;20036;-61
2023/08/12 00:37:13;;;;;;;9.50;5.35;;;;;;;;;;5089375;28;20052;-57
2023/08/12 00:39:39;;;;;;;10.70;5.25;;;;;;;;;;5090931;28;20391;-57
2023/08/12 00:42:06;;;;;;;11.38;4.82;;;;;;;;;;5088095;28;20046;-57
2023/08/12 00:44:32;;;;;;;9.77;5.30;;;;;;;;;;5090919;28;20036;-57
2023/08/12 00:46:58;;;;;;;9.35;5.38;;;;;;;;;;5090884;28;20056;-57
2023/08/12 00:49:25;;;;;;;11.35;5.03;;;;;;;;;;5094933;28;20040;-57
2023/08/12 00:51:53;;;;;;;11.95;4.78;;;;;;;;;;5100055;28;20059;-56
2023/08/12 00:54:20;;;;;;;8.48;4.95;;;;;;;;;;5090292;28;20497;-57
2023/08/12 00:56:46;;;;;;;11.27;5.57;;;;;;;;;;5091792;28;20459;-57
2023/08/12 00:59:12;;;;;;;8.63;4.97;;;;;;;;;;5093246;28;20036;-57
2023/08/12 01:01:41;;;;;;;12.90;5.68;;;;;;;;;;5089835;28;20059;-57
2023/08/12 01:04:07;;;;;;;9.75;5.22;;;;;;;;;;5087392;28;20056;-57
2023/08/12 01:06:34;;;;;;;10.85;5.63;;;;;;;;;;5091028;28;20036;-56
2023/08/12 01:09:01;;;;;;;10.68;5.45;;;;;;;;;;5092969;28;20039;-57
2023/08/12 01:11:37;;;;;;;8.38;4.93;;;;;;;;;;5093211;28;20043;-57
2023/08/12 01:14:03;;;;;;;11.98;4.90;;;;;;;;;;5088740;28;20048;-57
2023/08/12 01:16:31;;;;;;;9.20;4.88;;;;;;;;;;5094939;28;20039;-57
2023/08/12 01:18:58;;;;;;;10.40;5.43;;;;;;;;;;5095471;28;20163;-57
2023/08/12 01:21:24;;;;;;;10.85;5.63;;;;;;;;;;5096277;28;20040;-57
2023/08/12 01:23:51;;;;;;;8.82;5.57;;;;;;;;;;5089283;28;20040;-57
2023/08/12 01:26:17;;;;;;;9.85;5.65;;;;;;;;;;5096093;28;20039;-57
2023/08/12 01:28:43;;;;;;;8.35;5.15;;;;;;;;;;5088909;28;20064;-57
2023/08/12 01:31:13;;;;;;;16.88;5.80;;;;;;;;;;5090519;28;20086;-57
2023/08/12 01:33:57;;;;;;;12.30;5.78;;;;;;;;;;5088003;28;20040;-57
2023/08/12 01:36:24;;;;;;;10.25;5.97;;;;;;;;;;5090055;28;20442;-57
2023/08/12 01:38:52;;;;;;;12.13;6.38;;;;;;;;;;5089824;28;20086;-56
2023/08/12 01:41:19;;;;;;;14.65;5.78;;;;;;;;;;5090222;28;20121;-57
2023/08/12 01:43:45;;;;;;;12.18;6.45;;;;;;;;;;5094373;28;20352;-57
2023/08/12 01:46:12;;;;;;;10.88;5.85;;;;;;;;;;5103622;28;20055;-57
2023/08/12 01:48:38;;;;;;;11.23;6.35;;;;;;;;;;5096094;28;20123;-56
2023/08/12 01:51:04;;;;;;;11.38;6.03;;;;;;;;;;5089542;28;20058;-57
2023/08/12 01:53:31;;;;;;;10.60;5.47;;;;;;;;;;5095381;28;20380;-57
2023/08/12 01:55:57;;;;;;;10.77;5.63;;;;;;;;;;5102498;28;20055;-57
2023/08/12 01:58:23;;;;;;;11.93;6.20;;;;;;;;;;5091943;28;20040;-56
2023/08/12 02:00:49;;;;;;;11.30;6.10;;;;;;;;;;5089480;28;20043;-57
2023/08/12 02:03:15;;;;;;;12.20;6.25;;;;;;;;;;5091234;28;20431;-56
2023/08/12 02:05:41;;;;;;;11.43;6.85;;;;;;;;;;5092799;28;20067;-57
2023/08/12 02:08:08;;;;;;;12.23;6.53;;;;;;;;;;5093506;28;20505;-57
2023/08/12 02:10:34;;;;;;;10.68;6.07;;;;;;;;;;5093709;28;20036;-56
2023/08/12 02:13:00;;;;;;;12.98;7.03;;;;;;;;;;5092350;28;20088;-57
2023/08/12 02:15:26;;;;;;;18.38;7.10;;;;;;;;;;5091401;28;20069;-57
2023/08/12 02:17:53;;;;;;;12.07;7.53;;;;;;;;;;5104029;28;20100;-57
2023/08/12 02:20:19;;;;;;;15.32;7.28;;;;;;;;;;5112939;28;20035;-57
2023/08/12 02:22:45;;;;;;;11.10;7.20;;;;;;;;;;5102188;28;20055;-57
2023/08/12 02:25:11;;;;;;;14.00;6.93;;;;;;;;;;5110996;28;20131;-57
2023/08/12 02:27:37;;;;;;;17.42;6.75;;;;;;;;;;5099766;28;20478;-57
2023/08/12 02:30:05;;;;;;;11.93;6.60;;;;;;;;;;5105644;28;20053;-57
2023/08/12 02:32:31;;;;;;;10.65;7.03;;;;;;;;;;5100592;28;20047;-56
2023/08/12 02:34:57;;;;;;;12.02;6.82;;;;;;;;;;5111990;27;20067;-57
2023/08/12 02:37:23;;;;;;;21.23;8.18;;;;;;;;;;5103489;28;20032;-57
2023/08/12 02:39:49;;;;;;;12.52;6.75;;;;;;;;;;5104247;28;20073;-57
2023/08/12 02:42:15;;;;;;;12.43;6.40;;;;;;;;;;5104754;28;20071;-57
2023/08/12 02:44:42;;;;;;;12.82;7.63;;;;;;;;;;5110321;28;20040;-56
2023/08/12 02:47:08;;;;;;;13.48;7.75;;;;;;;;;;5100307;28;20101;-57
2023/08/12 02:49:34;;;;;;;13.93;7.45;;;;;;;;;;5101557;28;20201;-57
2023/08/12 02:52:00;;;;;;;12.77;7.28;;;;;;;;;;5108698;28;20396;-57
2023/08/12 02:54:26;;;;;;;14.25;7.57;;;;;;;;;;5105089;28;20035;-57
2023/08/12 02:56:52;;;;;;;11.77;6.80;;;;;;;;;;5111882;28;20046;-57
2023/08/12 02:59:19;;;;;;;15.48;7.97;;;;;;;;;;5101931;28;20115;-57
2023/08/12 03:01:45;;;;;;;16.73;7.43;;;;;;;;;;5096735;28;20040;-56
2023/08/12 03:04:11;;;;;;;13.02;7.72;;;;;;;;;;5094916;28;20123;-56
2023/08/12 03:06:37;;;;;;;12.45;7.38;;;;;;;;;;5107501;28;20093;-57
2023/08/12 03:09:04;;;;;;;13.05;7.50;;;;;;;;;;5108184;28;20044;-57
2023/08/12 03:11:30;;;;;;;9.65;6.82;;;;;;;;;;5106702;28;20094;-57
2023/08/12 03:13:56;;;;;;;16.25;7.63;;;;;;;;;;5091864;28;20044;-56
2023/08/12 03:16:22;;;;;;;12.65;6.80;;;;;;;;;;5104364;28;20093;-57
2023/08/12 03:18:48;;;;;;;18.77;7.57;;;;;;;;;;5096199;28;20028;-56
2023/08/12 03:21:15;;;;;;;16.17;6.97;;;;;;;;;;5109231;28;20118;-57
2023/08/12 03:23:41;;;;;;;12.82;7.07;;;;;;;;;;5094213;27;20071;-56
2023/08/12 03:26:07;;;;;;;13.23;7.70;;;;;;;;;;5094100;28;20040;-56
2023/08/12 03:28:33;;;;;;;13.55;7.45;;;;;;;;;;5104950;28;20079;-56
2023/08/12 03:31:00;;;;;;;12.90;7.68;;;;;;;;;;5111761;28;20048;-57
2023/08/12 03:33:26;;;;;;;14.30;7.97;;;;;;;;;;5099290;28;20082;-57
2023/08/12 03:35:52;;;;;;;15.07;8.57;;;;;;;;;;5109427;28;20043;-57
2023/08/12 03:38:18;;;;;;;16.42;8.45;;;;;;;;;;5112160;28;20143;-57
2023/08/12 03:40:44;;;;;;;28.98;9.48;;;;;;;;;;5107338;28;20087;-57
2023/08/12 03:43:11;;;;;;;12.98;8.18;;;;;;;;;;5104653;27;20051;-57
2023/08/12 03:45:41;;;;;;;15.35;9.23;;;;;;;;;;5112165;28;20267;-57
2023/08/12 03:48:07;;;;;;;18.42;8.63;;;;;;;;;;5084495;28;20074;-57
2023/08/12 03:50:34;;;;;;;16.20;8.60;;;;;;;;;;5096557;28;20135;-57
2023/08/12 03:53:01;;;;;;;16.98;9.10;;;;;;;;;;5087591;28;20310;-57
2023/08/12 03:55:27;;;;;;;14.15;8.43;;;;;;;;;;5099996;28;20387;-57
2023/08/12 03:57:53;;;;;;;16.88;9.23;;;;;;;;;;5109925;28;20963;-57
2023/08/12 04:00:19;;;;;;;21.00;9.77;;;;;;;;;;5092425;28;20093;-57
2023/08/12 04:02:46;;;;;;;16.13;9.50;;;;;;;;;;5095238;28;20117;-56
2023/08/12 04:05:12;;;;;;;17.67;10.38;;;;;;;;;;5103346;28;20048;-56
2023/08/12 04:07:38;;;;;;;18.05;9.38;;;;;;;;;;5104690;28;20126;-57
2023/08/12 04:10:04;;;;;;;21.17;9.45;;;;;;;;;;5104297;28;20062;-57
2023/08/12 04:12:31;;;;;;;15.57;8.90;;;;;;;;;;5098146;28;20043;-56
2023/08/12 04:14:57;;;;;;;14.15;8.82;;;;;;;;;;5102223;28;20491;-57
2023/08/12 04:17:23;;;;;;;17.08;9.77;;;;;;;;;;5110629;28;20040;-57
2023/08/12 04:19:49;;;;;;;13.68;9.05;;;;;;;;;;5096252;28;20044;-57
2023/08/12 04:22:16;;;;;;;15.82;9.32;;;;;;;;;;5095571;28;20040;-57
2023/08/12 04:24:42;;;;;;;18.98;9.35;;;;;;;;;;5101565;28;20043;-56
2023/08/12 04:27:09;;;;;;;16.05;9.15;;;;;;;;;;5099721;28;20076;-57
2023/08/12 04:29:35;;;;;;;19.23;10.40;;;;;;;;;;5102215;28;20087;-57
2023/08/12 04:32:01;;;;;;;18.23;9.60;;;;;;;;;;5094191;28;20093;-57
2023/08/12 04:34:27;;;;;;;13.93;8.63;;;;;;;;;;5107836;28;20455;-57
2023/08/12 04:36:54;;;;;;;15.20;8.85;;;;;;;;;;5109125;28;20055;-57
2023/08/12 04:39:21;;;;;;;23.65;9.30;;;;;;;;;;5096388;28;20336;-57
2023/08/12 04:41:48;;;;;;;15.35;9.10;;;;;;;;;;5100629;28;20174;-57
2023/08/12 04:44:14;;;;;;;14.82;9.25;;;;;;;;;;5106441;28;20396;-57
2023/08/12 04:46:40;;;;;;;16.80;8.68;;;;;;;;;;5105512;28;20036;-57
2023/08/12 04:49:06;;;;;;;19.00;9.57;;;;;;;;;;5101838;28;20140;-57
2023/08/12 04:51:32;;;;;;;16.33;9.50;;;;;;;;;;5097020;28;20126;-57
2023/08/12 04:54:01;;;;;;;14.48;8.77;;;;;;;;;;5101712;28;20047;-57
2023/08/12 04:56:28;;;;;;;16.55;8.52;;;;;;;;;;5102128;28;20035;-57
2023/08/12 04:58:55;;;;;;;15.95;8.45;;;;;;;;;;5110137;28;20119;-56
2023/08/12 05:01:21;;;;;;;13.88;8.70;;;;;;;;;;5101436;28;20039;-57
2023/08/12 05:03:48;;;;;;;17.08;9.05;;;;;;;;;;5091534;28;20031;-56
2023/08/12 05:06:14;;;;;;;15.90;8.80;;;;;;;;;;5108014;28;20044;-57
2023/08/12 05:08:40;;;;;;;13.55;8.50;;;;;;;;;;5109164;28;20119;-57
2023/08/12 05:11:06;;;;;;;17.10;9.40;;;;;;;;;;5100044;28;20032;-56
2023/08/12 05:13:32;;;;;;;14.45;8.95;;;;;;;;;;5110326;28;20039;-56
2023/08/12 05:15:59;;;;;;;16.05;8.73;;;;;;;;;;5102548;28;20122;-56
2023/08/12 05:18:26;;;;;;;15.02;8.10;;;;;;;;;;5107017;28;20120;-56
2023/08/12 05:20:52;;;;;;;15.55;9.57;;;;;;;;;;5095674;28;20040;-56
2023/08/12 05:23:20;;;;;;;15.80;8.68;;;;;;;;;;5102608;28;20129;-56
2023/08/12 05:25:47;;;;;;;12.85;8.25;;;;;;;;;;5094920;28;20040;-56
2023/08/12 05:28:13;;;;;;;16.23;8.68;;;;;;;;;;5096756;28;20047;-56
2023/08/12 05:30:39;;;;;;;16.15;7.97;;;;;;;;;;5095620;28;20032;-56
2023/08/12 05:33:05;;;;;;;13.77;8.18;;;;;;;;;;5100028;28;20040;-56
2023/08/12 05:35:35;;;;;;;17.20;8.95;;;;;;;;;;5088234;28;20491;-57
2023/08/12 05:38:01;;;;;;;18.80;8.95;;;;;;;;;;5111064;28;20047;-57
2023/08/12 05:40:27;;;;;;;16.27;9.50;;;;;;;;;;5111788;28;20032;-57
2023/08/12 05:42:54;;;;;;;14.82;9.10;;;;;;;;;;5104725;28;20118;-56
2023/08/12 05:45:20;;;;;;;14.38;8.63;;;;;;;;;;5100251;28;20044;-56
2023/08/12 05:47:46;;;;;;;18.45;9.10;;;;;;;;;;5096514;28;20449;-57
2023/08/12 05:50:12;;;;;;;15.45;9.02;;;;;;;;;;5096692;28;20510;-57
2023/08/12 05:52:38;;;;;;;16.58;8.85;;;;;;;;;;5096874;28;20043;-56
2023/08/12 05:55:05;;;;;;;14.63;8.82;;;;;;;;;;5091379;28;20436;-57
2023/08/12 05:57:32;;;;;;;19.30;9.70;;;;;;;;;;5095388;28;20434;-57
2023/08/12 05:59:58;;;;;;;20.48;10.38;;;;;;;;;;5111111;28;20122;-57
2023/08/12 06:02:26;;;;;;;18.25;10.13;;;;;;;;;;5098152;28;20080;-57
2023/08/12 06:04:52;;;;;;;17.92;9.18;;;;;;;;;;5097239;28;20047;-56
2023/08/12 06:07:18;;;;;;;14.63;9.80;;;;;;;;;;5111253;28;20036;-56
2023/08/12 06:09:45;;;;;;;13.57;8.55;;;;;;;;;;5098414;28;20044;-57
2023/08/12 06:12:11;;;;;;;18.67;10.02;;;;;;;;;;5107310;28;20089;-57
2023/08/12 06:14:40;;;;;;;18.35;9.90;;;;;;;;;;5108134;28;20436;-57
2023/08/12 06:17:06;;;;;;;18.20;9.05;;;;;;;;;;5109649;28;20039;-57
2023/08/12 06:19:32;;;;;;;19.27;9.85;;;;;;;;;;5113440;28;20050;-57
2023/08/12 06:21:59;;;;;;;16.80;9.23;;;;;;;;;;5095025;28;20044;-60
2023/08/12 06:24:25;;;;;;;20.08;9.27;;;;;;;;;;5089823;28;20064;-57
2023/08/12 06:26:51;;;;;;;21.85;10.57;;;;;;;;;;5106278;28;20044;-57
2023/08/12 06:29:17;;;;;;;23.52;11.05;;;;;;;;;;5101949;28;20399;-57
2023/08/12 06:31:43;;;;;;;18.05;10.68;;;;;;;;;;5103701;28;20043;-57
2023/08/12 06:34:10;;;;;;;20.13;10.43;;;;;;;;;;5095976;28;20488;-57
2023/08/12 06:36:36;;;;;;;20.23;10.38;;;;;;;;;;5113817;28;20051;-57
2023/08/12 06:39:03;;;;;;;19.80;10.85;;;;;;;;;;5112554;28;20127;-57
2023/08/12 06:41:29;;;;;;;24.25;10.68;;;;;;;;;;5097285;28;20047;-57
2023/08/12 06:43:56;;;;;;;20.00;11.00;;;;;;;;;;5106233;28;20057;-56
2023/08/12 06:46:22;;;;;;;21.13;10.93;;;;;;;;;;5112426;28;20124;-57
2023/08/12 06:48:48;;;;;;;20.40;10.90;;;;;;;;;;5101097;27;20547;-57
2023/08/12 06:51:14;;;;;;;19.67;10.43;;;;;;;;;;5096686;28;20040;-56
2023/08/12 06:53:41;;;;;;;23.30;11.18;;;;;;;;;;5089154;28;20052;-57
2023/08/12 06:56:07;;;;;;;19.52;10.88;;;;;;;;;;5090794;28;20122;-57
2023/08/12 06:58:33;;;;;;;25.67;11.98;;;;;;;;;;5098054;28;20101;-57
2023/08/12 07:00:59;;;;;;;20.75;11.90;;;;;;;;;;5090710;28;20474;-57
2023/08/12 07:03:26;;;;;;;20.67;12.13;;;;;;;;;;5106741;27;20099;-57
2023/08/12 07:05:53;;;;;;;20.35;11.95;;;;;;;;;;5113129;28;20113;-57
2023/08/12 07:08:19;;;;;;;20.30;11.88;;;;;;;;;;5107981;28;20040;-57
2023/08/12 07:10:46;;;;;;;22.45;12.30;;;;;;;;;;5113023;27;20122;-57
2023/08/12 07:13:12;;;;;;;19.95;12.35;;;;;;;;;;5112584;28;20097;-57
2023/08/12 07:15:38;;;;;;;25.55;13.85;;;;;;;;;;5112321;28;20089;-57
2023/08/12 07:18:04;;;;;;;19.85;12.20;;;;;;;;;;5098225;28;20059;-57
2023/08/12 07:20:31;;;;;;;22.30;13.73;;;;;;;;;;5111047;28;20428;-57
2023/08/12 07:22:57;;;;;;;25.85;15.02;;;;;;;;;;5103656;28;20044;-63
2023/08/12 07:25:23;;;;;;;24.75;14.13;;;;;;;;;;5092822;28;20089;-57
2023/08/12 07:27:49;;;;;;;22.25;14.18;;;;;;;;;;5112592;28;20208;-57
2023/08/12 07:30:15;;;;;;;21.40;13.43;;;;;;;;;;5093947;28;20036;-57
2023/08/12 07:32:42;;;;;;;27.02;14.90;;;;;;;;;;5101098;28;20529;-57
2023/08/12 07:35:08;;;;;;;29.00;15.20;;;;;;;;;;5106139;28;20074;-57
2023/08/12 07:37:34;;;;;;;25.90;15.00;;;;;;;;;;5107022;28;20379;-57
2023/08/12 07:40:01;;;;;;;28.00;15.10;;;;;;;;;;5092025;28;20127;-57
2023/08/12 07:42:27;;;;;;;25.02;14.98;;;;;;;;;;5090070;28;20074;-57
2023/08/12 07:44:53;;;;;;;25.58;15.18;;;;;;;;;;5091653;28;20036;-57
2023/08/12 07:47:19;;;;;;;26.35;17.02;;;;;;;;;;5091995;28;20076;-57
2023/08/12 07:49:45;;;;;;;29.08;16.63;;;;;;;;;;5087423;28;20492;-56
2023/08/12 07:52:12;;;;;;;26.45;16.35;;;;;;;;;;5092697;28;20081;-57
2023/08/12 07:54:38;;;;;;;27.80;17.10;;;;;;;;;;5089752;28;20446;-57
2023/08/12 07:57:04;;;;;;;28.52;17.67;;;;;;;;;;5088996;28;20090;-57
2023/08/12 07:59:31;;;;;;;30.20;17.75;;;;;;;;;;5090545;28;20093;-57
2023/08/12 08:01:58;;;;;;;28.52;16.55;;;;;;;;;;5090502;28;20092;-57
2023/08/12 08:04:24;;;;;;;31.80;17.25;;;;;;;;;;5088964;28;20052;-63
2023/08/12 08:06:50;;;;;;;34.85;18.70;;;;;;;;;;5092117;28;20484;-59
2023/08/12 08:09:16;;;;;;;26.35;17.52;;;;;;;;;;5091341;28;20070;-59
2023/08/12 08:11:42;;;;;;;32.10;19.80;;;;;;;;;;5090617;28;20113;-58
2023/08/12 08:14:09;;;;;;;35.10;20.25;;;;;;;;;;5091083;28;20062;-59
2023/08/12 08:16:35;;;;;;;36.05;20.00;;;;;;;;;;5091395;28;20040;-58
2023/08/12 08:19:01;;;;;;;38.55;19.77;;;;;;;;;;5089023;28;20130;-59
2023/08/12 08:21:27;;;;;;;33.75;19.00;;;;;;;;;;5089692;28;20059;-59
2023/08/12 08:23:54;;;;;;;33.38;19.23;;;;;;;;;;5093152;28;20035;-59
2023/08/12 08:26:20;;;;;;;37.33;20.50;;;;;;;;;;5110730;28;20044;-58
2023/08/12 08:28:46;;;;;;;39.53;21.45;;;;;;;;;;5111692;28;20121;-59
2023/08/12 08:31:13;;;;;;;37.45;21.35;;;;;;;;;;5111545;28;20083;-59
2023/08/12 08:33:39;;;;;;;37.97;20.65;;;;;;;;;;5110513;28;20055;-59
2023/08/12 08:36:05;;;;;;;34.38;21.30;;;;;;;;;;5104685;28;20047;-59
2023/08/12 08:38:32;;;;;;;38.70;21.02;;;;;;;;;;5097977;28;20040;-59
2023/08/12 08:40:58;;;;;;;39.53;22.67;;;;;;;;;;5092635;28;20451;-58
2023/08/12 08:43:28;;;;;;;43.85;22.05;;;;;;;;;;5111177;28;20044;-58
2023/08/12 08:45:55;;;;;;;38.80;21.08;;;;;;;;;;5110371;28;20079;-58
2023/08/12 08:48:21;;;;;;;43.70;23.08;;;;;;;;;;5111136;28;20481;-58
2023/08/12 08:50:50;;;;;;;42.67;22.63;;;;;;;;;;5111223;28;20050;-58
2023/08/12 08:53:16;;;;;;;38.95;22.98;;;;;;;;;;5096299;28;20089;-59
2023/08/12 08:55:43;;;;;;;44.28;24.05;;;;;;;;;;5103896;28;20075;-59
2023/08/12 08:58:09;;;;;;;43.58;22.73;;;;;;;;;;5111055;28;20527;-59
2023/08/12 09:00:37;;;;;;;44.50;24.00;;;;;;;;;;5110470;28;20035;-58
2023/08/12 09:03:03;;;;;;;46.97;24.17;;;;;;;;;;5104310;28;20139;-59
2023/08/12 09:05:30;;;;;;;44.70;23.08;;;;;;;;;;5111110;28;20445;-58
2023/08/12 09:07:57;;;;;;;49.25;24.92;;;;;;;;;;5110004;28;20043;-58
2023/08/12 09:10:25;;;;;;;41.83;23.90;;;;;;;;;;5105618;28;20050;-59
2023/08/12 09:12:52;;;;;;;43.33;24.90;;;;;;;;;;5108892;28;20156;-58
2023/08/12 09:15:18;;;;;;;42.67;24.85;;;;;;;;;;5112967;28;20059;-59
2023/08/12 09:17:45;;;;;;;43.03;24.67;;;;;;;;;;5115305;28;20032;-58
2023/08/12 09:20:11;;;;;;;42.97;23.92;;;;;;;;;;5114846;28;20130;-58
2023/08/12 09:22:41;;;;;;;44.40;24.70;;;;;;;;;;5105372;28;20046;-58
2023/08/12 09:25:08;;;;;;;44.78;25.55;;;;;;;;;;5097974;28;20036;-59
2023/08/12 09:27:36;;;;;;;44.88;26.55;;;;;;;;;;5113479;28;20078;-59
2023/08/12 09:30:03;;;;;;;41.45;25.85;;;;;;;;;;5115184;28;20040;-58
2023/08/12 09:32:30;;;;;;;46.78;27.15;;;;;;;;;;5095676;27;20058;-59
2023/08/12 09:34:56;;;;;;;47.80;27.98;;;;;;;;;;5103610;28;20555;-58
2023/08/12 09:37:23;;;;;;;48.50;28.23;;;;;;;;;;5114608;28;20046;-58
2023/08/12 09:39:51;;;;;;;46.42;27.60;;;;;;;;;;5114869;27;20040;-58
2023/08/12 09:42:17;;;;;;;51.92;28.75;;;;;;;;;;5113936;28;20055;-58
2023/08/12 09:44:44;;;;;;;47.22;28.10;;;;;;;;;;5114720;28;20119;-58
2023/08/12 09:47:10;;;;;;;46.20;27.85;;;;;;;;;;5111574;28;20041;-58
2023/08/12 09:49:37;;;;;;;50.30;27.60;;;;;;;;;;5112036;28;20514;-58
2023/08/12 09:52:06;;;;;;;45.38;27.65;;;;;;;;;;5114481;28;20089;-58
2023/08/12 09:54:33;;;;;;;47.30;28.92;;;;;;;;;;5097774;28;20043;-58
2023/08/12 09:57:00;;;;;;;48.70;27.33;;;;;;;;;;5101211;28;20096;-58
2023/08/12 09:59:31;;;;;;;55.85;29.83;;;;;;;;;;5114189;28;20047;-59
2023/08/12 10:01:58;;;;;;;51.00;27.98;;;;;;;;;;5114179;28;20036;-59
2023/08/12 10:04:25;;;;;;;53.95;30.85;;;;;;;;;;5102539;28;20083;-59
2023/08/12 10:06:51;;;;;;;45.00;28.67;;;;;;;;;;5093451;28;20055;-58
2023/08/12 10:09:18;;;;;;;51.45;28.08;;;;;;;;;;5098377;28;20484;-59
2023/08/12 10:11:44;;;;;;;48.53;28.90;;;;;;;;;;5091598;28;20100;-58
2023/08/12 10:14:11;;;;;;;48.20;28.70;;;;;;;;;;5104055;28;20525;-59
2023/08/12 10:16:37;;;;;;;56.92;29.77;;;;;;;;;;5097812;28;20059;-58
2023/08/12 10:19:05;;;;;;;38.08;20.92;;;;;;;;;;5101470;28;20036;-59
2023/08/12 10:21:32;;;;;;;20.95;6.45;;;;;;;;;;5102630;27;20094;-59
2023/08/12 10:23:59;;;;;;;16.17;5.13;;;;;;;;;;5087753;28;20641;-58
2023/08/12 10:26:25;;;;;;;18.02;4.60;;;;;;;;;;5100059;28;20061;-58
2023/08/12 10:28:52;;;;;;;13.10;4.13;;;;;;;;;;5102649;28;20404;-58
2023/08/12 10:31:19;;;;;;;10.32;4.22;;;;;;;;;;5100504;28;20096;-58
2023/08/12 10:33:49;;;;;;;14.43;4.70;;;;;;;;;;5113692;27;20036;-58
2023/08/12 10:36:18;;;;;;;10.60;3.90;;;;;;;;;;5101381;28;20039;-58
2023/08/12 10:38:45;;;;;;;18.75;4.47;;;;;;;;;;5103804;28;20165;-58
2023/08/12 10:41:15;;;;;;;14.93;3.92;;;;;;;;;;5091656;28;20051;-58
2023/08/12 10:43:54;;;;;;;18.08;4.90;;;;;;;;;;5097154;28;20051;-58
2023/08/12 10:46:24;;;;;;;11.18;3.63;;;;;;;;;;5111767;28;20087;-58
2023/08/12 10:48:58;;;;;;;15.27;3.70;;;;;;;;;;5104930;28;20440;-58
2023/08/12 10:51:59;;;;;;;9.88;2.85;;;;;;;;;;5101777;28;20146;-58
2023/08/12 10:54:30;;;;;;;9.00;3.35;;;;;;;;;;5084110;28;20107;-58
2023/08/12 10:57:05;;;;;;;10.77;3.25;;;;;;;;;;5104323;28;20039;-58
2023/08/12 10:59:46;;;;;;;9.57;3.10;;;;;;;;;;5091947;28;20105;-58
2023/08/12 11:02:23;;;;;;;8.13;2.95;;;;;;;;;;5113255;28;20044;-58
2023/08/12 11:04:54;;;;;;;13.65;3.35;;;;;;;;;;5110625;28;20348;-58
2023/08/12 11:07:21;;;;;;;11.65;3.10;;;;;;;;;;5101454;28;20047;-58
2023/08/12 11:09:52;;;;;;;11.38;3.28;;;;;;;;;;5109739;28;20040;-58
2023/08/12 11:12:19;;;;;;;12.57;3.05;;;;;;;;;;5096912;28;20123;-58
2023/08/12 11:14:52;;;;;;;9.55;3.65;;;;;;;;;;5089188;28;20049;-59
2023/08/12 11:17:18;;;;;;;12.60;3.80;;;;;;;;;;5086812;28;20510;-58
2023/08/12 11:19:44;;;;;;;9.60;2.60;;;;;;;;;;5103979;28;20036;-58
2023/08/12 11:22:12;;;;;;;12.00;3.30;;;;;;;;;;5092433;28;20397;-58
2023/08/12 11:24:41;;;;;;;10.73;3.08;;;;;;;;;;5098669;28;20086;-58
2023/08/12 11:27:10;;;;;;;12.45;2.90;;;;;;;;;;5096739;28;20431;-58
2023/08/12 11:29:38;;;;;;;12.05;2.90;;;;;;;;;;5100134;28;20087;-58
2023/08/12 11:32:06;;;;;;;12.13;3.00;;;;;;;;;;5112268;28;20127;-59
2023/08/12 11:34:32;;;;;;;12.38;3.22;;;;;;;;;;5089476;28;20135;-58
2023/08/12 11:36:59;;;;;;;14.57;3.38;;;;;;;;;;5097846;28;20044;-58
2023/08/12 11:39:25;;;;;;;8.80;2.65;;;;;;;;;;5111003;28;20035;-58
2023/08/12 11:41:51;;;;;;;11.60;3.10;;;;;;;;;;5102553;28;20089;-58
2023/08/12 11:44:21;;;;;;;10.02;3.15;;;;;;;;;;5098345;28;20152;-58
2023/08/12 11:46:47;;;;;;;10.70;2.97;;;;;;;;;;5103647;28;20040;-59
2023/08/12 11:49:14;;;;;;;10.80;3.35;;;;;;;;;;5106171;28;20062;-58
2023/08/12 11:51:40;;;;;;;13.30;3.08;;;;;;;;;;5088838;28;20080;-58
2023/08/12 11:54:06;;;;;;;14.13;3.08;;;;;;;;;;5097060;28;20175;-58
2023/08/12 11:56:33;;;;;;;10.82;2.95;;;;;;;;;;5107954;28;20115;-58
2023/08/12 11:58:59;;;;;;;11.80;2.70;;;;;;;;;;5092059;28;20080;-59
2023/08/12 12:01:28;;;;;;;9.77;3.20;;;;;;;;;;5100752;28;20043;-58
2023/08/12 12:03:54;;;;;;;13.90;3.35;;;;;;;;;;5091631;28;20330;-58
2023/08/12 12:06:34;;;;;;;10.48;3.00;;;;;;;;;;5097379;28;20066;-58
2023/08/12 12:09:09;;;;;;;10.70;3.53;;;;;;;;;;5096687;28;20036;-58
2023/08/12 12:11:39;;;;;;;9.05;3.53;;;;;;;;;;5088953;28;20048;-59
2023/08/12 12:14:07;;;;;;;11.93;3.33;;;;;;;;;;5089892;28;20047;-58
2023/08/12 12:16:46;;;;;;;18.45;3.33;;;;;;;;;;5089454;28;20479;-58
2023/08/12 12:19:20;;;;;;;13.05;4.22;;;;;;;;;;5081475;28;20512;-59
2023/08/12 12:21:50;;;;;;;9.38;3.10;;;;;;;;;;5088177;28;20032;-58
2023/08/12 12:24:17;;;;;;;7.10;2.90;;;;;;;;;;5085374;28;20028;-58
2023/08/12 12:26:44;;;;;;;13.15;3.20;;;;;;;;;;5111754;28;20407;-58
2023/08/12 12:29:13;;;;;;;6.85;2.88;;;;;;;;;;5110000;28;20040;-59
2023/08/12 12:31:40;;;;;;;11.02;3.55;;;;;;;;;;5100313;28;20124;-59
2023/08/12 12:34:07;;;;;;;11.82;3.55;;;;;;;;;;5108118;28;20040;-58
2023/08/12 12:36:38;;;;;;;10.77;3.30;;;;;;;;;;5111341;27;20046;-58
2023/08/12 12:39:05;;;;;;;12.13;3.47;;;;;;;;;;5102443;28;20066;-58
2023/08/12 12:41:32;;;;;;;11.45;3.55;;;;;;;;;;5101892;28;20167;-58
2023/08/12 12:44:01;;;;;;;14.38;4.05;;;;;;;;;;5093722;28;20055;-58
2023/08/12 12:46:27;;;;;;;11.13;3.10;;;;;;;;;;5109910;28;20039;-58
2023/08/12 12:48:53;;;;;;;10.75;2.72;;;;;;;;;;5109891;27;20058;-58
2023/08/12 12:51:19;;;;;;;9.23;2.72;;;;;;;;;;5099436;28;20043;-57
2023/08/12 12:53:45;;;;;;;11.85;2.80;;;;;;;;;;5105189;28;20044;-57
2023/08/12 12:56:12;;;;;;;10.88;2.97;;;;;;;;;;5106902;28;20066;-58
2023/08/12 12:58:38;;;;;;;12.80;2.70;;;;;;;;;;5099173;28;20048;-57
2023/08/12 13:01:05;;;;;;;11.93;2.38;;;;;;;;;;5098382;28;20068;-58
2023/08/12 13:03:31;;;;;;;12.07;2.88;;;;;;;;;;5110918;28;20039;-57
2023/08/12 13:05:58;;;;;;;10.88;2.65;;;;;;;;;;5107273;28;20119;-58
2023/08/12 13:08:24;;;;;;;11.45;2.40;;;;;;;;;;5110086;28;20039;-58
2023/08/12 13:10:51;;;;;;;7.05;2.35;;;;;;;;;;5103198;28;20063;-58
2023/08/12 13:13:18;;;;;;;11.65;2.78;;;;;;;;;;5104810;28;20044;-57
2023/08/12 13:15:45;;;;;;;12.57;2.60;;;;;;;;;;5100233;28;20039;-58
2023/08/12 13:18:11;;;;;;;12.05;2.15;;;;;;;;;;5110999;28;20046;-58
2023/08/12 13:20:38;;;;;;;7.60;2.35;;;;;;;;;;5094205;28;20364;-58
2023/08/12 13:23:04;;;;;;;10.27;2.50;;;;;;;;;;5104758;28;20447;-58
2023/08/12 13:25:34;;;;;;;10.55;3.00;;;;;;;;;;5091909;28;20044;-58
2023/08/12 13:28:01;;;;;;;11.18;2.55;;;;;;;;;;5094296;28;20047;-58
2023/08/12 13:30:27;;;;;;;8.10;2.20;;;;;;;;;;5105445;28;20055;-58
2023/08/12 13:32:54;;;;;;;7.53;2.08;;;;;;;;;;5110987;28;20389;-58
2023/08/12 13:35:20;;;;;;;11.07;2.42;;;;;;;;;;5109995;28;20123;-58
2023/08/12 13:37:46;;;;;;;11.77;2.00;;;;;;;;;;5106139;28;20048;-58
2023/08/12 13:40:14;;;;;;;5.90;2.10;;;;;;;;;;5110722;28;20036;-58
2023/08/12 13:42:41;;;;;;;8.20;2.28;;;;;;;;;;5098994;28;20048;-58
2023/08/12 13:45:07;;;;;;;10.93;2.30;;;;;;;;;;5110578;28;20153;-57
2023/08/12 13:47:36;;;;;;;10.63;2.25;;;;;;;;;;5106708;28;20078;-58
2023/08/12 13:50:03;;;;;;;8.52;2.33;;;;;;;;;;5109987;28;20453;-58
2023/08/12 13:52:29;;;;;;;10.18;2.35;;;;;;;;;;5096742;28;20123;-58
2023/08/12 13:54:55;;;;;;;10.07;2.47;;;;;;;;;;5101192;28;20086;-58
2023/08/12 13:57:21;;;;;;;9.50;2.55;;;;;;;;;;5108876;28;20050;-58
2023/08/12 13:59:47;;;;;;;6.50;2.15;;;;;;;;;;5112714;28;20373;-58
2023/08/12 14:02:14;;;;;;;11.18;2.40;;;;;;;;;;5104603;28;20054;-58
2023/08/12 14:04:40;;;;;;;8.50;2.30;;;;;;;;;;5101237;28;20403;-57
2023/08/12 14:07:06;;;;;;;9.32;2.25;;;;;;;;;;5107910;28;20032;-58
2023/08/12 14:09:34;;;;;;;10.98;2.13;;;;;;;;;;5107802;28;20389;-58
2023/08/12 14:12:00;;;;;;;7.63;1.98;;;;;;;;;;5107979;28;20054;-58
2023/08/12 14:14:29;;;;;;;9.90;2.40;;;;;;;;;;5106983;28;20146;-57
2023/08/12 14:16:55;;;;;;;7.53;2.08;;;;;;;;;;5113389;28;20035;-57
2023/08/12 14:19:22;;;;;;;9.73;2.25;;;;;;;;;;5114080;28;20044;-58
2023/08/12 14:21:48;;;;;;;8.98;2.30;;;;;;;;;;5097948;28;20060;-58
2023/08/12 14:24:14;;;;;;;9.35;2.63;;;;;;;;;;5102535;28;20139;-58
2023/08/12 14:26:40;;;;;;;7.45;2.28;;;;;;;;;;5107386;28;20487;-58